Kristy Dutsch — WDC9005 — position and weather

sailwx.info

Track history (hours):
 
Tides and Currents Weather Stations Pressure Air Temp Water Temp Dewpoint Dewpoint Depression Visibility Wind Speed Wind Dir Waves Ship Positions

Kristy Dutsch

Owner: Florida Marine, LLC, Mandeville, LA. More information available from US FCC via Universal Licensing System and Coast Guard Vessel Documentation Center.

Last reported at 2018-Feb-23 08:34 UTC. Time now 2018-Feb-24 02:42 UTC.
Position N 29°50' W 092°00'.

Length 26 m; draft 2.8 m.

Type: Other ship. MMSI: 367096290.

Date/timePositionNaut miles runAvg speedWind from/ knotsBaromVisibWave heightAir tempDewpointWater temp
2018-Feb-23 08:34N 29°50' W 092°00'0 4.5
2018-Feb-23 08:28N 29°49' W 092°01'2 4.3
2018-Feb-23 08:00N 29°49' W 092°03'2 4.3
2018-Feb-23 07:30N 29°48' W 092°05'2 4.4
2018-Feb-23 07:00N 29°47' W 092°08'2 3.9
2018-Feb-23 06:30N 29°47' W 092°10'2 3.7
2018-Feb-23 06:00N 29°47' W 092°12'1 1.1
2018-Feb-23 05:30N 29°47' W 092°13'1 2.0
2018-Feb-23 05:00N 29°48' W 092°14'1 2.0
2018-Feb-23 04:30N 29°48' W 092°15'2 4.6
2018-Feb-23 04:00N 29°49' W 092°17'2 3.8
2018-Feb-23 03:30N 29°50' W 092°19'2 3.0
2018-Feb-23 03:00N 29°51' W 092°20'44 4.1
2018-Feb-22 16:20N 29°57' W 093°10'2 4.1
2018-Feb-22 15:44N 29°59' W 093°12'1 4.4
2018-Feb-22 15:30N 29°60' W 093°13'5 3.4
2018-Feb-22 14:04N 30°04' W 093°16'0 4.8
2018-Feb-22 14:00N 30°04' W 093°16'2 3.5
2018-Feb-22 13:20N 30°06' W 093°18'2 4.0
2018-Feb-22 12:56N 30°05' W 093°20'2 4.5
2018-Feb-22 12:24N 30°04' W 093°22'6 4.3
2018-Feb-22 11:00N 30°04' W 093°29'3 4.0
2018-Feb-22 10:16N 30°04' W 093°32'1 4.1
2018-Feb-22 10:00N 30°04' W 093°34'2 4.0
2018-Feb-22 09:30N 30°04' W 093°36'3 4.0
2018-Feb-22 08:46N 30°04' W 093°39'1 4.0
2018-Feb-22 08:25N 30°04' W 093°41'2 3.7
2018-Feb-22 07:59N 30°03' W 093°43'2 4.0
2018-Feb-22 07:30N 30°02' W 093°44'2 4.2
2018-Feb-22 07:00N 30°00' W 093°46'2 4.5
2018-Feb-22 06:30N 29°59' W 093°48'2 4.8
2018-Feb-22 06:00N 29°58' W 093°51'2 4.9
2018-Feb-22 05:30N 29°56' W 093°52'1 3.0
2018-Feb-22 05:00N 29°55' W 093°53'1 2.2
2018-Feb-22 04:30N 29°54' W 093°54'3 6.1
2018-Feb-22 04:00N 29°52' W 093°56'3 5.6
2018-Feb-22 03:30N 29°49' W 093°58'1 1.5
2018-Feb-22 03:00N 29°49' W 093°59'2 4.2
2018-Feb-22 02:31N 29°48' W 094°00'3 5.2
2018-Feb-22 02:00N 29°46' W 094°03'3 5.1
2018-Feb-22 01:30N 29°45' W 094°05'2 5.0
2018-Feb-22 01:00N 29°43' W 094°07'3 5.1
2018-Feb-22 00:30N 29°41' W 094°10'2 4.7
2018-Feb-22 00:00N 29°41' W 094°12'2 4.4
2018-Feb-21 23:28N 29°40' W 094°15'2 4.8
2018-Feb-21 22:58N 29°39' W 094°17'2 4.8
2018-Feb-21 22:30N 29°38' W 094°19'2 4.6
2018-Feb-21 22:00N 29°36' W 094°22'3 2.9
2018-Feb-21 21:03N 29°36' W 094°25'0 0.1
2018-Feb-21 20:58N 29°36' W 094°25'0 0.2
2018-Feb-21 20:23N 29°36' W 094°25'1 2.0
2018-Feb-21 19:59N 29°35' W 094°25'22 0.8
2018-Feb-20 16:54N 29°23' W 094°46'6 0.3
2018-Feb-19 20:51N 29°22' W 094°53'0 0.0
2018-Feb-19 20:30N 29°22' W 094°53'0 0.1
2018-Feb-19 19:40N 29°22' W 094°54'0 0.0
2018-Feb-19 17:25N 29°22' W 094°53'0 0.0
2018-Feb-19 16:56N 29°22' W 094°53'0 0.0
2018-Feb-19 14:53N 29°22' W 094°53'0 0.0
2018-Feb-19 14:19N 29°22' W 094°53'0 0.0
2018-Feb-19 14:00N 29°22' W 094°53'0 0.0
2018-Feb-19 13:30N 29°22' W 094°53'0 0.0
2018-Feb-19 12:52N 29°22' W 094°53'0 0.0
2018-Feb-19 11:28N 29°22' W 094°53'0 0.0
2018-Feb-19 10:57N 29°22' W 094°53'0 0.0
2018-Feb-19 10:30N 29°22' W 094°53'0 0.0
2018-Feb-19 09:57N 29°22' W 094°53'0 0.0
2018-Feb-19 09:29N 29°22' W 094°53'0 0.0
2018-Feb-19 09:00N 29°22' W 094°53'0 0.0
2018-Feb-19 08:30N 29°22' W 094°53'0 0.0
2018-Feb-19 08:00N 29°22' W 094°53'0 0.0
2018-Feb-19 07:30N 29°22' W 094°53'0 0.0
2018-Feb-19 07:00N 29°22' W 094°53'0 0.0
2018-Feb-19 06:30N 29°22' W 094°53'0 0.0
2018-Feb-19 06:00N 29°22' W 094°53'0 0.0
2018-Feb-19 05:30N 29°22' W 094°53'0 0.0
2018-Feb-19 05:00N 29°22' W 094°53'0 0.0
2018-Feb-19 04:30N 29°22' W 094°53'1 0.1
2018-Feb-18 14:38N 29°23' W 094°52'0 0.0
2018-Feb-18 07:46N 29°23' W 094°52'0 0.0
2018-Feb-17 06:16N 29°23' W 094°52'0 0.0
2018-Feb-17 06:00N 29°23' W 094°52'0 0.0
2018-Feb-17 05:21N 29°23' W 094°52'0 0.0
2018-Feb-17 04:58N 29°23' W 094°52'0 0.0
2018-Feb-17 04:11N 29°23' W 094°52'0 0.0
2018-Feb-17 02:28N 29°23' W 094°52'0 0.0
2018-Feb-17 02:00N 29°23' W 094°52'0 0.0
2018-Feb-17 01:14N 29°23' W 094°52'0 0.0
2018-Feb-17 00:49N 29°23' W 094°52'0 0.0
2018-Feb-17 00:22N 29°23' W 094°52'1 0.1
2018-Feb-16 07:04N 29°22' W 094°54'0 0.0
2018-Feb-16 06:43N 29°22' W 094°54'  
Track history (hours):
 
Tides and Currents Weather Stations Pressure Air Temp Water Temp Dewpoint Dewpoint Depression Visibility Wind Speed Wind Dir Waves Ship Positions

Kristy Dutsch

Owner: Florida Marine, LLC, Mandeville, LA. More information available from US FCC via Universal Licensing System and Coast Guard Vessel Documentation Center.

Last reported at 2018-Feb-23 08:34 UTC. Time now 2018-Feb-24 02:42 UTC.
Position N 29°50' W 092°00'.

Length 26 m; draft 2.8 m.

Type: Other ship. MMSI: 367096290.

Date/timePositionNaut miles runAvg speedWind from/ knotsBaromVisibWave heightAir tempDewpointWater temp
2018-Feb-23 08:34N 29°50' W 092°00'0 4.5
2018-Feb-23 08:28N 29°49' W 092°01'2 4.3
2018-Feb-23 08:00N 29°49' W 092°03'2 4.3
2018-Feb-23 07:30N 29°48' W 092°05'2 4.4
2018-Feb-23 07:00N 29°47' W 092°08'2 3.9
2018-Feb-23 06:30N 29°47' W 092°10'2 3.7
2018-Feb-23 06:00N 29°47' W 092°12'1 1.1
2018-Feb-23 05:30N 29°47' W 092°13'1 2.0
2018-Feb-23 05:00N 29°48' W 092°14'1 2.0
2018-Feb-23 04:30N 29°48' W 092°15'2 4.6
2018-Feb-23 04:00N 29°49' W 092°17'2 3.8
2018-Feb-23 03:30N 29°50' W 092°19'2 3.0
2018-Feb-23 03:00N 29°51' W 092°20'44 4.1
2018-Feb-22 16:20N 29°57' W 093°10'2 4.1
2018-Feb-22 15:44N 29°59' W 093°12'1 4.4
2018-Feb-22 15:30N 29°60' W 093°13'5 3.4
2018-Feb-22 14:04N 30°04' W 093°16'0 4.8
2018-Feb-22 14:00N 30°04' W 093°16'2 3.5
2018-Feb-22 13:20N 30°06' W 093°18'2 4.0
2018-Feb-22 12:56N 30°05' W 093°20'2 4.5
2018-Feb-22 12:24N 30°04' W 093°22'6 4.3
2018-Feb-22 11:00N 30°04' W 093°29'3 4.0
2018-Feb-22 10:16N 30°04' W 093°32'1 4.1
2018-Feb-22 10:00N 30°04' W 093°34'2 4.0
2018-Feb-22 09:30N 30°04' W 093°36'3 4.0
2018-Feb-22 08:46N 30°04' W 093°39'1 4.0
2018-Feb-22 08:25N 30°04' W 093°41'2 3.7
2018-Feb-22 07:59N 30°03' W 093°43'2 4.0
2018-Feb-22 07:30N 30°02' W 093°44'2 4.2
2018-Feb-22 07:00N 30°00' W 093°46'2 4.5
2018-Feb-22 06:30N 29°59' W 093°48'2 4.8
2018-Feb-22 06:00N 29°58' W 093°51'2 4.9
2018-Feb-22 05:30N 29°56' W 093°52'1 3.0
2018-Feb-22 05:00N 29°55' W 093°53'1 2.2
2018-Feb-22 04:30N 29°54' W 093°54'3 6.1
2018-Feb-22 04:00N 29°52' W 093°56'3 5.6
2018-Feb-22 03:30N 29°49' W 093°58'1 1.5
2018-Feb-22 03:00N 29°49' W 093°59'2 4.2
2018-Feb-22 02:31N 29°48' W 094°00'3 5.2
2018-Feb-22 02:00N 29°46' W 094°03'3 5.1
2018-Feb-22 01:30N 29°45' W 094°05'2 5.0
2018-Feb-22 01:00N 29°43' W 094°07'3 5.1
2018-Feb-22 00:30N 29°41' W 094°10'2 4.7
2018-Feb-22 00:00N 29°41' W 094°12'2 4.4
2018-Feb-21 23:28N 29°40' W 094°15'2 4.8
2018-Feb-21 22:58N 29°39' W 094°17'2 4.8
2018-Feb-21 22:30N 29°38' W 094°19'2 4.6
2018-Feb-21 22:00N 29°36' W 094°22'3 2.9
2018-Feb-21 21:03N 29°36' W 094°25'0 0.1
2018-Feb-21 20:58N 29°36' W 094°25'0 0.2
2018-Feb-21 20:23N 29°36' W 094°25'1 2.0
2018-Feb-21 19:59N 29°35' W 094°25'22 0.8
2018-Feb-20 16:54N 29°23' W 094°46'6 0.3
2018-Feb-19 20:51N 29°22' W 094°53'0 0.0
2018-Feb-19 20:30N 29°22' W 094°53'0 0.1
2018-Feb-19 19:40N 29°22' W 094°54'0 0.0
2018-Feb-19 17:25N 29°22' W 094°53'0 0.0
2018-Feb-19 16:56N 29°22' W 094°53'0 0.0
2018-Feb-19 14:53N 29°22' W 094°53'0 0.0
2018-Feb-19 14:19N 29°22' W 094°53'0 0.0
2018-Feb-19 14:00N 29°22' W 094°53'0 0.0
2018-Feb-19 13:30N 29°22' W 094°53'0 0.0
2018-Feb-19 12:52N 29°22' W 094°53'0 0.0
2018-Feb-19 11:28N 29°22' W 094°53'0 0.0
2018-Feb-19 10:57N 29°22' W 094°53'0 0.0
2018-Feb-19 10:30N 29°22' W 094°53'0 0.0
2018-Feb-19 09:57N 29°22' W 094°53'0 0.0
2018-Feb-19 09:29N 29°22' W 094°53'0 0.0
2018-Feb-19 09:00N 29°22' W 094°53'0 0.0
2018-Feb-19 08:30N 29°22' W 094°53'0 0.0
2018-Feb-19 08:00N 29°22' W 094°53'0 0.0
2018-Feb-19 07:30N 29°22' W 094°53'0 0.0
2018-Feb-19 07:00N 29°22' W 094°53'0 0.0
2018-Feb-19 06:30N 29°22' W 094°53'0 0.0
2018-Feb-19 06:00N 29°22' W 094°53'0 0.0
2018-Feb-19 05:30N 29°22' W 094°53'0 0.0
2018-Feb-19 05:00N 29°22' W 094°53'0 0.0
2018-Feb-19 04:30N 29°22' W 094°53'1 0.1
2018-Feb-18 14:38N 29°23' W 094°52'0 0.0
2018-Feb-18 07:46N 29°23' W 094°52'0 0.0
2018-Feb-17 06:16N 29°23' W 094°52'0 0.0
2018-Feb-17 06:00N 29°23' W 094°52'0 0.0
2018-Feb-17 05:21N 29°23' W 094°52'0 0.0
2018-Feb-17 04:58N 29°23' W 094°52'0 0.0
2018-Feb-17 04:11N 29°23' W 094°52'0 0.0
2018-Feb-17 02:28N 29°23' W 094°52'0 0.0
2018-Feb-17 02:00N 29°23' W 094°52'0 0.0
2018-Feb-17 01:14N 29°23' W 094°52'0 0.0
2018-Feb-17 00:49N 29°23' W 094°52'0 0.0
2018-Feb-17 00:22N 29°23' W 094°52'1 0.1
2018-Feb-16 07:04N 29°22' W 094°54'0 0.0
2018-Feb-16 06:43N 29°22' W 094°54'  

Dump ship's entire track history